PRIVATE WETTERSTATION BILLIGHEIM-ALLFELD                       ZURCK
Wetterdaten: Freitag, 04.08.2017
Datum Zeit Temp. A. Temp. A. min Temp. A. max Feuchte A. Luftdruck Regen Wind Richtung Richtung Sonnenschein ET Solar Taupunkt Windchill Windben Empfang
04.08.2017 00:00 21,1 C 21,0 C 21,1 C 79 % 1012,8 hPa 0,0 l/m 0,0 km/h (0 Bft) W 270 0 min 0,025 mm 0 W/m 17,3 C 21,1 C 4,8 km/h (1 Bft) 98 %
04.08.2017 00:10 21,1 C 21,1 C 21,1 C 78 % 1012,8 hPa 0,0 l/m 0,0 km/h (0 Bft) W 270 0 min 0,000 mm 0 W/m 17,1 C 21,1 C 6,4 km/h (2 Bft) 97 %
04.08.2017 00:20 21,0 C 21,0 C 21,1 C 77 % 1012,7 hPa 0,0 l/m 0,0 km/h (0 Bft) W 270 0 min 0,000 mm 0 W/m 16,8 C 21,0 C 6,4 km/h (2 Bft) 98 %
04.08.2017 00:30 21,0 C 21,0 C 21,1 C 77 % 1012,7 hPa 0,0 l/m 0,0 km/h (0 Bft) W 270 0 min 0,000 mm 0 W/m 16,8 C 21,0 C 3,2 km/h (1 Bft) 98 %
04.08.2017 00:40 20,8 C 20,8 C 21,0 C 78 % 1012,8 hPa 0,0 l/m 0,0 km/h (0 Bft) N 0 0 min 0,000 mm 0 W/m 16,8 C 20,8 C 0,0 km/h (0 Bft) 97 %
04.08.2017 00:50 20,7 C 20,7 C 20,8 C 80 % 1012,6 hPa 0,0 l/m 0,0 km/h (0 Bft) W 270 0 min 0,000 mm 0 W/m 17,1 C 20,7 C 1,6 km/h (1 Bft) 98 %
04.08.2017 01:00 20,6 C 20,6 C 20,7 C 81 % 1012,5 hPa 0,0 l/m 0,0 km/h (0 Bft) N 0 0 min 0,025 mm 0 W/m 17,2 C 20,6 C 0,0 km/h (0 Bft) 98 %
04.08.2017 01:10 20,5 C 20,5 C 20,6 C 81 % 1012,5 hPa 0,0 l/m 0,0 km/h (0 Bft) N 0 0 min 0,000 mm 0 W/m 17,1 C 20,5 C 0,0 km/h (0 Bft) 98 %
04.08.2017 01:20 20,4 C 20,4 C 20,5 C 82 % 1012,4 hPa 0,0 l/m 0,0 km/h (0 Bft) W 270 0 min 0,000 mm 0 W/m 17,2 C 20,4 C 1,6 km/h (1 Bft) 98 %
04.08.2017 01:30 20,2 C 20,2 C 20,4 C 83 % 1012,4 hPa 0,0 l/m 0,0 km/h (0 Bft) SW 225 0 min 0,000 mm 0 W/m 17,2 C 20,2 C 4,8 km/h (1 Bft) 98 %
04.08.2017 01:40 19,9 C 19,9 C 20,2 C 83 % 1012,3 hPa 0,0 l/m 0,0 km/h (0 Bft) N 0 0 min 0,000 mm 0 W/m 16,9 C 19,9 C 0,0 km/h (0 Bft) 98 %
04.08.2017 01:50 19,8 C 19,8 C 19,9 C 83 % 1012,3 hPa 0,0 l/m 0,0 km/h (0 Bft) SW 225 0 min 0,000 mm 0 W/m 16,8 C 19,8 C 3,2 km/h (1 Bft) 97 %
04.08.2017 02:00 19,8 C 19,8 C 19,8 C 84 % 1012,3 hPa 0,0 l/m 3,2 km/h (1 Bft) S-SW 202 0 min 0,025 mm 0 W/m 17,0 C 19,8 C 6,4 km/h (2 Bft) 98 %
04.08.2017 02:10 19,7 C 19,7 C 19,8 C 84 % 1012,3 hPa 0,0 l/m 0,0 km/h (0 Bft) S-SO 157 0 min 0,000 mm 0 W/m 16,9 C 19,7 C 1,6 km/h (1 Bft) 98 %
04.08.2017 02:20 19,7 C 19,7 C 19,7 C 83 % 1012,2 hPa 0,0 l/m 0,0 km/h (0 Bft) S-SO 157 0 min 0,000 mm 0 W/m 16,7 C 19,7 C 1,6 km/h (1 Bft) 97 %
04.08.2017 02:30 19,7 C 19,7 C 19,7 C 83 % 1012,3 hPa 0,0 l/m 0,0 km/h (0 Bft) S-SO 157 0 min 0,000 mm 0 W/m 16,7 C 19,7 C 1,6 km/h (1 Bft) 98 %
04.08.2017 02:40 19,7 C 19,7 C 19,7 C 82 % 1012,4 hPa 0,0 l/m 0,0 km/h (0 Bft) S-SO 157 0 min 0,000 mm 0 W/m 16,5 C 19,7 C 1,6 km/h (1 Bft) 98 %
04.08.2017 02:50 19,6 C 19,6 C 19,7 C 82 % 1012,4 hPa 0,0 l/m 0,0 km/h (0 Bft) S-SO 157 0 min 0,000 mm 0 W/m 16,4 C 19,6 C 1,6 km/h (1 Bft) 97 %
04.08.2017 03:00 19,6 C 19,6 C 19,6 C 82 % 1012,4 hPa 0,0 l/m 0,0 km/h (0 Bft) N 0 0 min 0,025 mm 0 W/m 16,4 C 19,6 C 0,0 km/h (0 Bft) 98 %
04.08.2017 03:10 19,6 C 19,5 C 19,6 C 83 % 1012,4 hPa 0,0 l/m 0,0 km/h (0 Bft) S-SO 157 0 min 0,000 mm 0 W/m 16,6 C 19,6 C 1,6 km/h (1 Bft) 98 %
04.08.2017 03:20 19,5 C 19,5 C 19,6 C 82 % 1012,4 hPa 0,0 l/m 0,0 km/h (0 Bft) S-SO 157 0 min 0,000 mm 0 W/m 16,3 C 19,5 C 4,8 km/h (1 Bft) 98 %
04.08.2017 03:30 19,6 C 19,5 C 19,6 C 82 % 1012,4 hPa 0,0 l/m 0,0 km/h (0 Bft) S-SO 157 0 min 0,000 mm 0 W/m 16,4 C 19,6 C 3,2 km/h (1 Bft) 97 %
04.08.2017 03:40 19,5 C 19,5 C 19,6 C 82 % 1012,4 hPa 0,0 l/m 0,0 km/h (0 Bft) N 0 0 min 0,000 mm 0 W/m 16,3 C 19,5 C 0,0 km/h (0 Bft) 98 %
04.08.2017 03:50 19,5 C 19,5 C 19,5 C 82 % 1012,4 hPa 0,0 l/m 0,0 km/h (0 Bft) S-SO 157 0 min 0,000 mm 0 W/m 16,3 C 19,5 C 1,6 km/h (1 Bft) 97 %
04.08.2017 04:00 19,4 C 19,4 C 19,5 C 82 % 1012,2 hPa 0,0 l/m 3,2 km/h (1 Bft) S-SO 157 0 min 0,025 mm 0 W/m 16,2 C 19,4 C 8,0 km/h (2 Bft) 98 %
04.08.2017 04:10 19,4 C 19,4 C 19,4 C 83 % 1012,2 hPa 0,0 l/m 1,6 km/h (1 Bft) SO 135 0 min 0,000 mm 0 W/m 16,4 C 19,4 C 8,0 km/h (2 Bft) 89 %
04.08.2017 04:20 19,4 C 19,3 C 19,4 C 83 % 1012,2 hPa 0,0 l/m 1,6 km/h (1 Bft) SO 135 0 min 0,000 mm 0 W/m 16,4 C 19,4 C 8,0 km/h (2 Bft) 98 %
04.08.2017 04:30 19,3 C 19,3 C 19,4 C 83 % 1012,1 hPa 0,0 l/m 0,0 km/h (0 Bft) SO 135 0 min 0,000 mm 0 W/m 16,3 C 19,3 C 8,0 km/h (2 Bft) 98 %
04.08.2017 04:40 19,3 C 19,3 C 19,3 C 83 % 1012,1 hPa 0,0 l/m 0,0 km/h (0 Bft) SO 135 0 min 0,000 mm 0 W/m 16,3 C 19,3 C 1,6 km/h (1 Bft) 97 %
04.08.2017 04:50 19,2 C 19,2 C 19,3 C 84 % 1012,1 hPa 0,0 l/m 0,0 km/h (0 Bft) SO 135 0 min 0,000 mm 0 W/m 16,4 C 19,2 C 6,4 km/h (2 Bft) 97 %
04.08.2017 05:00 19,3 C 19,2 C 19,3 C 84 % 1011,9 hPa 0,0 l/m 0,0 km/h (0 Bft) SO 135 0 min 0,025 mm 0 W/m 16,5 C 19,3 C 4,8 km/h (1 Bft) 98 %
04.08.2017 05:10 19,3 C 19,2 C 19,3 C 84 % 1011,7 hPa 0,0 l/m 1,6 km/h (1 Bft) SO 135 0 min 0,000 mm 0 W/m 16,5 C 19,3 C 6,4 km/h (2 Bft) 98 %
04.08.2017 05:20 19,3 C 19,2 C 19,3 C 84 % 1011,7 hPa 0,0 l/m 0,0 km/h (0 Bft) SO 135 0 min 0,000 mm 0 W/m 16,5 C 19,3 C 1,6 km/h (1 Bft) 98 %
04.08.2017 05:30 19,2 C 19,2 C 19,3 C 84 % 1011,8 hPa 0,0 l/m 1,6 km/h (1 Bft) S-SO 157 0 min 0,000 mm 0 W/m 16,4 C 19,2 C 6,4 km/h (2 Bft) 98 %
04.08.2017 05:40 19,1 C 19,1 C 19,2 C 84 % 1011,8 hPa 0,0 l/m 0,0 km/h (0 Bft) S-SO 157 0 min 0,000 mm 0 W/m 16,3 C 19,1 C 1,6 km/h (1 Bft) 98 %
04.08.2017 05:50 19,0 C 19,0 C 19,1 C 84 % 1011,9 hPa 0,0 l/m 0,0 km/h (0 Bft) S-SO 157 0 min 0,000 mm 0 W/m 16,2 C 19,0 C 1,6 km/h (1 Bft) 97 %
04.08.2017 06:00 19,0 C 19,0 C 19,0 C 85 % 1012,0 hPa 0,0 l/m 0,0 km/h (0 Bft) S-SO 157 0 min 0,000 mm 0 W/m 16,4 C 19,0 C 4,8 km/h (1 Bft) 98 %
04.08.2017 06:10 19,1 C 19,0 C 19,1 C 85 % 1012,1 hPa 0,0 l/m 0,0 km/h (0 Bft) S-SO 157 0 min 0,000 mm 0 W/m 16,5 C 19,1 C 4,8 km/h (1 Bft) 97 %
04.08.2017 06:20 19,0 C 19,0 C 19,1 C 85 % 1012,1 hPa 0,0 l/m 1,6 km/h (1 Bft) S-SO 157 0 min 0,000 mm 5 W/m 16,4 C 19,0 C 6,4 km/h (2 Bft) 97 %
04.08.2017 06:30 18,9 C 18,9 C 19,0 C 86 % 1012,2 hPa 0,0 l/m 0,0 km/h (0 Bft) N 0 0 min 0,000 mm 11 W/m 16,5 C 18,9 C 0,0 km/h (0 Bft) 98 %
04.08.2017 06:40 18,9 C 18,9 C 18,9 C 86 % 1012,2 hPa 0,0 l/m 0,0 km/h (0 Bft) N 0 0 min 0,000 mm 16 W/m 16,5 C 18,9 C 0,0 km/h (0 Bft) 97 %
04.08.2017 06:50 19,0 C 18,9 C 19,0 C 86 % 1012,2 hPa 0,0 l/m 0,0 km/h (0 Bft) S 180 0 min 0,000 mm 16 W/m 16,6 C 19,0 C 4,8 km/h (1 Bft) 97 %
04.08.2017 07:00 19,1 C 18,9 C 19,1 C 86 % 1012,3 hPa 0,0 l/m 1,6 km/h (1 Bft) S-SO 157 0 min 0,000 mm 30 W/m 16,7 C 19,1 C 6,4 km/h (2 Bft) 98 %
04.08.2017 07:10 19,1 C 19,1 C 19,2 C 86 % 1012,2 hPa 0,0 l/m 0,0 km/h (0 Bft) S-SO 157 0 min 0,000 mm 33 W/m 16,7 C 19,1 C 1,6 km/h (1 Bft) 97 %
04.08.2017 07:20 19,2 C 19,1 C 19,2 C 86 % 1012,3 hPa 0,0 l/m 1,6 km/h (1 Bft) S-SO 157 0 min 0,000 mm 53 W/m 16,8 C 19,2 C 6,4 km/h (2 Bft) 98 %
04.08.2017 07:30 19,3 C 19,2 C 19,3 C 86 % 1012,3 hPa 0,0 l/m 3,2 km/h (1 Bft) S-SO 157 0 min 0,000 mm 76 W/m 16,9 C 19,3 C 11,3 km/h (2 Bft) 97 %
04.08.2017 07:40 19,5 C 19,3 C 19,5 C 86 % 1012,3 hPa 0,0 l/m 1,6 km/h (1 Bft) S-SW 202 0 min 0,000 mm 81 W/m 17,1 C 19,5 C 11,3 km/h (2 Bft) 98 %
04.08.2017 07:50 19,7 C 19,5 C 19,7 C 85 % 1012,3 hPa 0,0 l/m 3,2 km/h (1 Bft) S 180 0 min 0,000 mm 91 W/m 17,1 C 19,7 C 11,3 km/h (2 Bft) 98 %
04.08.2017 08:00 19,9 C 19,7 C 19,9 C 85 % 1012,4 hPa 0,0 l/m 4,8 km/h (1 Bft) S-SW 202 0 min 0,051 mm 118 W/m 17,3 C 19,9 C 17,7 km/h (3 Bft) 98 %
04.08.2017 08:10 20,1 C 19,8 C 20,1 C 84 % 1012,7 hPa 0,0 l/m 6,4 km/h (2 Bft) SW 225 0 min 0,000 mm 125 W/m 17,3 C 20,1 C 19,3 km/h (3 Bft) 97 %
04.08.2017 08:20 20,3 C 20,1 C 20,3 C 82 % 1012,7 hPa 0,0 l/m 6,4 km/h (2 Bft) W-SW 247 0 min 0,000 mm 118 W/m 17,1 C 20,3 C 19,3 km/h (3 Bft) 98 %
04.08.2017 08:30 20,4 C 20,3 C 20,4 C 81 % 1012,7 hPa 0,0 l/m 8,0 km/h (2 Bft) W-SW 247 10 min 0,000 mm 156 W/m 17,0 C 19,8 C 22,5 km/h (4 Bft) 98 %
04.08.2017 08:40 20,6 C 20,4 C 20,6 C 81 % 1012,6 hPa 0,0 l/m 8,0 km/h (2 Bft) W-SW 247 10 min 0,000 mm 185 W/m 17,2 C 20,0 C 27,4 km/h (4 Bft) 96 %
04.08.2017 08:50 20,8 C 20,6 C 20,8 C 81 % 1012,6 hPa 0,0 l/m 6,4 km/h (2 Bft) W-SW 247 10 min 0,000 mm 179 W/m 17,4 C 20,8 C 16,1 km/h (3 Bft) 98 %
04.08.2017 09:00 20,8 C 20,8 C 20,8 C 80 % 1012,7 hPa 0,0 l/m 8,0 km/h (2 Bft) W-SW 247 10 min 0,102 mm 195 W/m 17,2 C 20,2 C 22,5 km/h (4 Bft) 98 %
04.08.2017 09:10 20,9 C 20,8 C 20,9 C 80 % 1012,8 hPa 0,0 l/m 8,0 km/h (2 Bft) W 270 10 min 0,000 mm 207 W/m 17,3 C 20,3 C 22,5 km/h (4 Bft) 98 %
04.08.2017 09:20 21,1 C 20,9 C 21,1 C 81 % 1012,9 hPa 0,0 l/m 4,8 km/h (1 Bft) W-SW 247 10 min 0,000 mm 243 W/m 17,7 C 21,1 C 16,1 km/h (3 Bft) 97 %
04.08.2017 09:30 21,2 C 21,1 C 21,2 C 81 % 1012,9 hPa 0,0 l/m 6,4 km/h (2 Bft) SW 225 10 min 0,000 mm 311 W/m 17,8 C 21,2 C 25,7 km/h (4 Bft) 98 %
04.08.2017 09:40 21,4 C 21,2 C 21,4 C 80 % 1012,9 hPa 0,0 l/m 6,4 km/h (2 Bft) S-SW 202 10 min 0,000 mm 274 W/m 17,8 C 21,4 C 20,9 km/h (4 Bft) 98 %
04.08.2017 09:50 21,5 C 21,3 C 21,5 C 79 % 1012,9 hPa 0,0 l/m 6,4 km/h (2 Bft) SW 225 10 min 0,000 mm 301 W/m 17,7 C 21,5 C 19,3 km/h (3 Bft) 97 %
04.08.2017 10:00 21,6 C 21,5 C 21,6 C 79 % 1013,0 hPa 0,0 l/m 11,3 km/h (2 Bft) S-SW 202 10 min 0,178 mm 432 W/m 17,8 C 20,1 C 22,5 km/h (4 Bft) 98 %
04.08.2017 10:10 21,7 C 21,6 C 21,7 C 78 % 1013,0 hPa 0,0 l/m 12,9 km/h (3 Bft) SW 225 10 min 0,000 mm 427 W/m 17,7 C 19,8 C 27,4 km/h (4 Bft) 98 %
04.08.2017 10:20 21,9 C 21,7 C 21,9 C 77 % 1013,0 hPa 0,0 l/m 14,5 km/h (3 Bft) S-SW 202 10 min 0,000 mm 490 W/m 17,7 C 19,7 C 27,4 km/h (4 Bft) 98 %
04.08.2017 10:30 22,5 C 21,9 C 22,5 C 75 % 1013,0 hPa 0,0 l/m 14,5 km/h (3 Bft) S-SW 202 10 min 0,000 mm 898 W/m 17,8 C 20,4 C 27,4 km/h (4 Bft) 98 %
04.08.2017 10:40 22,9 C 21,9 C 22,9 C 71 % 1013,1 hPa 0,0 l/m 12,4 km/h (3 Bft) W 281 10 min 0,000 mm 253 W/m 17,4 C 21,3 C 20,9 km/h (4 Bft) 99 %
04.08.2017 10:50 22,5 C 22,5 C 22,9 C 73 % 1013,1 hPa 0,0 l/m 11,9 km/h (2 Bft) W-SW 244 10 min 0,000 mm 471 W/m 17,4 C 20,9 C 27,4 km/h (4 Bft) 100 %
04.08.2017 11:00 22,3 C 22,3 C 22,5 C 74 % 1013,2 hPa 0,0 l/m 8,3 km/h (2 Bft) W-SW 250 10 min 0,000 mm 271 W/m 17,4 C 21,7 C 24,1 km/h (4 Bft) 100 %
04.08.2017 11:10 22,4 C 22,3 C 22,4 C 72 % 1013,2 hPa 0,0 l/m 8,4 km/h (2 Bft) W 273 10 min 0,281 mm 311 W/m 17,1 C 21,7 C 24,1 km/h (4 Bft) 100 %
04.08.2017 11:20 22,3 C 22,3 C 22,4 C 72 % 1013,3 hPa 0,0 l/m 10,6 km/h (2 Bft) W 265 10 min 0,000 mm 345 W/m 17,0 C 21,0 C 27,4 km/h (4 Bft) 100 %
04.08.2017 11:30 22,2 C 22,2 C 22,3 C 71 % 1013,4 hPa 0,0 l/m 12,7 km/h (3 Bft) SW 227 10 min 0,000 mm 387 W/m 16,7 C 20,4 C 27,4 km/h (4 Bft) 100 %
04.08.2017 11:40 22,1 C 22,1 C 22,2 C 72 % 1013,3 hPa 0,0 l/m 7,7 km/h (2 Bft) W 277 10 min 0,000 mm 302 W/m 16,8 C 21,7 C 20,9 km/h (4 Bft) 99 %
04.08.2017 11:50 22,1 C 22,1 C 22,2 C 71 % 1013,5 hPa 0,0 l/m 11,4 km/h (2 Bft) SW 226 10 min 0,000 mm 411 W/m 16,6 C 20,6 C 33,8 km/h (5 Bft) 100 %
04.08.2017 12:00 22,3 C 22,1 C 22,3 C 71 % 1013,5 hPa 0,0 l/m 12,4 km/h (3 Bft) SW 219 10 min 0,279 mm 464 W/m 16,8 C 20,6 C 33,8 km/h (5 Bft) 100 %
04.08.2017 12:10 22,4 C 22,3 C 22,4 C 71 % 1013,4 hPa 0,0 l/m 12,6 km/h (3 Bft) SW 223 10 min 0,000 mm 408 W/m 16,9 C 20,7 C 30,6 km/h (5 Bft) 100 %
04.08.2017 12:20 22,4 C 22,4 C 22,4 C 72 % 1013,4 hPa 0,0 l/m 11,9 km/h (2 Bft) S 189 10 min 0,000 mm 545 W/m 17,1 C 20,8 C 27,4 km/h (4 Bft) 100 %
04.08.2017 12:30 22,5 C 22,4 C 22,6 C 67 % 1013,4 hPa 0,0 l/m 12,5 km/h (3 Bft) W-SW 254 10 min 0,000 mm 404 W/m 16,1 C 20,8 C 29,0 km/h (5 Bft) 100 %
04.08.2017 12:40 22,6 C 22,5 C 22,6 C 68 % 1013,4 hPa 0,0 l/m 13,1 km/h (3 Bft) W 277 10 min 0,000 mm 468 W/m 16,4 C 20,8 C 27,4 km/h (4 Bft) 100 %
04.08.2017 12:50 22,5 C 22,5 C 22,6 C 67 % 1013,5 hPa 0,0 l/m 13,4 km/h (3 Bft) SW 235 10 min 0,000 mm 497 W/m 16,1 C 20,6 C 29,0 km/h (5 Bft) 100 %
04.08.2017 13:00 22,8 C 22,5 C 22,8 C 67 % 1013,3 hPa 0,0 l/m 11,2 km/h (2 Bft) W 269 10 min 0,356 mm 821 W/m 16,3 C 21,4 C 25,7 km/h (4 Bft) 100 %
04.08.2017 13:10 23,4 C 22,8 C 23,4 C 63 % 1013,3 hPa 0,0 l/m 16,1 km/h (3 Bft) S 191 10 min 0,000 mm 726 W/m 15,9 C 21,2 C 32,2 km/h (5 Bft) 100 %
04.08.2017 13:20 23,5 C 23,4 C 23,5 C 63 % 1013,4 hPa 0,0 l/m 13,2 km/h (3 Bft) S 171 10 min 0,000 mm 698 W/m 16,0 C 21,8 C 30,6 km/h (5 Bft) 100 %
04.08.2017 13:30 23,7 C 23,5 C 23,7 C 62 % 1013,4 hPa 0,0 l/m 11,4 km/h (2 Bft) SW 228 10 min 0,000 mm 559 W/m 16,0 C 22,4 C 30,6 km/h (5 Bft) 100 %
04.08.2017 13:40 23,6 C 23,6 C 23,7 C 61 % 1013,5 hPa 0,0 l/m 12,4 km/h (3 Bft) W-SW 254 10 min 0,000 mm 591 W/m 15,6 C 22,1 C 32,2 km/h (5 Bft) 100 %
04.08.2017 13:50 23,2 C 23,2 C 23,6 C 61 % 1013,6 hPa 0,0 l/m 12,7 km/h (3 Bft) SW 234 10 min 0,000 mm 278 W/m 15,3 C 21,6 C 27,4 km/h (4 Bft) 100 %
04.08.2017 14:00 22,9 C 22,9 C 23,2 C 61 % 1013,6 hPa 0,0 l/m 8,9 km/h (2 Bft) W-SW 248 10 min 0,406 mm 255 W/m 15,0 C 22,1 C 24,1 km/h (4 Bft) 100 %
04.08.2017 14:10 22,6 C 22,6 C 22,9 C 63 % 1013,6 hPa 0,0 l/m 9,9 km/h (2 Bft) W-NW 292 10 min 0,000 mm 316 W/m 15,2 C 21,5 C 29,0 km/h (5 Bft) 100 %
04.08.2017 14:20 22,4 C 22,4 C 22,6 C 64 % 1013,5 hPa 0,0 l/m 10,0 km/h (2 Bft) W-NW 286 10 min 0,000 mm 302 W/m 15,2 C 21,3 C 33,8 km/h (5 Bft) 100 %
04.08.2017 14:30 22,3 C 22,3 C 22,4 C 64 % 1013,6 hPa 0,0 l/m 7,5 km/h (2 Bft) W-SW 257 10 min 0,000 mm 274 W/m 15,2 C 21,9 C 19,3 km/h (3 Bft) 100 %
04.08.2017 14:40 22,3 C 22,3 C 22,3 C 67 % 1013,6 hPa 0,0 l/m 4,7 km/h (1 Bft) W-NW 297 10 min 0,000 mm 394 W/m 15,9 C 22,3 C 17,7 km/h (3 Bft) 100 %
04.08.2017 14:50 22,6 C 22,3 C 22,6 C 66 % 1013,5 hPa 0,0 l/m 3,1 km/h (1 Bft) W 264 10 min 0,000 mm 352 W/m 15,9 C 22,6 C 19,3 km/h (3 Bft) 100 %
04.08.2017 15:00 22,7 C 22,6 C 22,7 C 65 % 1013,6 hPa 0,0 l/m 5,3 km/h (1 Bft) W 273 10 min 0,229 mm 374 W/m 15,8 C 22,7 C 19,3 km/h (3 Bft) 99 %
04.08.2017 15:10 22,8 C 22,6 C 22,8 C 66 % 1013,5 hPa 0,0 l/m 4,6 km/h (1 Bft) W 275 10 min 0,000 mm 443 W/m 16,1 C 22,8 C 16,1 km/h (3 Bft) 100 %
04.08.2017 15:20 23,2 C 22,8 C 23,2 C 65 % 1013,4 hPa 0,0 l/m 3,9 km/h (1 Bft) W-SW 254 10 min 0,000 mm 355 W/m 16,2 C 23,2 C 17,7 km/h (3 Bft) 100 %
04.08.2017 15:30 23,2 C 23,1 C 23,2 C 62 % 1013,5 hPa 0,0 l/m 7,3 km/h (2 Bft) W-SW 253 10 min 0,000 mm 468 W/m 15,5 C 22,9 C 19,3 km/h (3 Bft) 100 %
04.08.2017 15:40 23,4 C 23,2 C 23,4 C 61 % 1013,4 hPa 0,0 l/m 11,8 km/h (2 Bft) W 275 10 min 0,000 mm 846 W/m 15,4 C 22,0 C 25,7 km/h (4 Bft) 100 %
04.08.2017 15:50 24,1 C 23,4 C 24,1 C 56 % 1013,4 hPa 0,0 l/m 10,2 km/h (2 Bft) W-SW 240 10 min 0,000 mm 765 W/m 14,8 C 23,1 C 27,4 km/h (4 Bft) 100 %
04.08.2017 16:00 24,3 C 24,1 C 24,3 C 58 % 1013,2 hPa 0,0 l/m 14,8 km/h (3 Bft) S-SW 212 10 min 0,406 mm 728 W/m 15,5 C 22,5 C 27,4 km/h (4 Bft) 100 %
04.08.2017 16:10 24,5 C 24,3 C 24,5 C 61 % 1013,1 hPa 0,0 l/m 9,4 km/h (2 Bft) W 277 10 min 0,000 mm 719 W/m 16,5 C 23,7 C 29,0 km/h (5 Bft) 100 %
04.08.2017 16:20 24,7 C 24,5 C 24,7 C 55 % 1013,0 hPa 0,0 l/m 12,6 km/h (3 Bft) W-NW 291 10 min 0,000 mm 684 W/m 15,0 C 23,3 C 27,4 km/h (4 Bft) 100 %
04.08.2017 16:30 24,7 C 24,6 C 24,7 C 54 % 1013,3 hPa 0,0 l/m 10,9 km/h (2 Bft) W-SW 244 10 min 0,000 mm 635 W/m 14,8 C 23,6 C 25,7 km/h (4 Bft) 100 %
04.08.2017 16:40 24,7 C 24,7 C 24,7 C 56 % 1013,3 hPa 0,0 l/m 8,2 km/h (2 Bft) W 269 10 min 0,000 mm 568 W/m 15,3 C 24,2 C 22,5 km/h (4 Bft) 100 %
04.08.2017 16:50 24,4 C 24,4 C 24,7 C 57 % 1013,3 hPa 0,0 l/m 10,3 km/h (2 Bft) W 266 10 min 0,000 mm 657 W/m 15,3 C 23,4 C 32,2 km/h (5 Bft) 100 %
04.08.2017 17:00 24,3 C 24,3 C 24,4 C 56 % 1013,2 hPa 0,0 l/m 10,3 km/h (2 Bft) W-SW 255 0 min 0,407 mm 74 W/m 14,9 C 23,3 C 29,0 km/h (5 Bft) 100 %
04.08.2017 17:10 24,4 C 24,3 C 24,4 C 57 % 1013,3 hPa 0,0 l/m 10,1 km/h (2 Bft) W 277 0 min 0,000 mm 63 W/m 15,3 C 23,5 C 30,6 km/h (5 Bft) 99 %
04.08.2017 17:20 24,6 C 24,4 C 24,6 C 58 % 1013,3 hPa 0,0 l/m 6,3 km/h (2 Bft) W-NW 290 0 min 0,000 mm 58 W/m 15,8 C 24,6 C 24,1 km/h (4 Bft) 100 %
04.08.2017 17:30 24,5 C 24,5 C 24,6 C 56 % 1013,3 hPa 0,0 l/m 11,4 km/h (2 Bft) W-SW 256 0 min 0,000 mm 62 W/m 15,1 C 23,3 C 32,2 km/h (5 Bft) 100 %
04.08.2017 17:40 24,4 C 24,4 C 24,5 C 57 % 1013,3 hPa 0,0 l/m 7,3 km/h (2 Bft) W-SW 246 0 min 0,000 mm 58 W/m 15,3 C 24,2 C 25,7 km/h (4 Bft) 99 %
04.08.2017 17:50 24,5 C 24,4 C 24,5 C 57 % 1013,3 hPa 0,0 l/m 5,0 km/h (1 Bft) W-NW 282 0 min 0,000 mm 58 W/m 15,4 C 24,5 C 27,4 km/h (4 Bft) 100 %
04.08.2017 18:00 24,3 C 24,3 C 24,5 C 57 % 1013,3 hPa 0,0 l/m 8,7 km/h (2 Bft) W-SW 249 0 min 0,101 mm 54 W/m 15,2 C 23,7 C 22,5 km/h (4 Bft) 100 %
04.08.2017 18:10 24,2 C 24,2 C 24,3 C 58 % 1013,4 hPa 0,0 l/m 5,0 km/h (1 Bft) W-SW 254 0 min 0,000 mm 65 W/m 15,4 C 24,2 C 19,3 km/h (3 Bft) 100 %
04.08.2017 18:20 24,0 C 24,0 C 24,2 C 60 % 1013,3 hPa 0,0 l/m 12,2 km/h (2 Bft) W-SW 258 0 min 0,000 mm 53 W/m 15,7 C 22,6 C 27,4 km/h (4 Bft) 100 %
04.08.2017 18:30 23,9 C 23,9 C 24,0 C 60 % 1013,4 hPa 0,0 l/m 9,8 km/h (2 Bft) W 265 0 min 0,000 mm 76 W/m 15,7 C 23,0 C 19,3 km/h (3 Bft) 100 %
04.08.2017 18:40 23,9 C 23,8 C 23,9 C 60 % 1013,3 hPa 0,0 l/m 7,4 km/h (2 Bft) W 277 0 min 0,000 mm 65 W/m 15,7 C 23,6 C 20,9 km/h (4 Bft) 100 %
04.08.2017 18:50 23,7 C 23,7 C 23,9 C 60 % 1013,5 hPa 0,0 l/m 9,0 km/h (2 Bft) W-NW 282 0 min 0,000 mm 47 W/m 15,5 C 23,0 C 24,1 km/h (4 Bft) 100 %
04.08.2017 19:00 23,4 C 23,4 C 23,7 C 59 % 1013,4 hPa 0,0 l/m 7,0 km/h (2 Bft) W 276 0 min 0,102 mm 65 W/m 14,9 C 23,2 C 17,7 km/h (3 Bft) 100 %
04.08.2017 19:10 23,3 C 23,3 C 23,4 C 61 % 1013,4 hPa 0,0 l/m 2,6 km/h (1 Bft) W-NW 296 0 min 0,000 mm 81 W/m 15,3 C 23,3 C 16,1 km/h (3 Bft) 100 %
04.08.2017 19:20 23,3 C 23,3 C 23,3 C 59 % 1013,6 hPa 0,0 l/m 8,8 km/h (2 Bft) W-NW 292 0 min 0,000 mm 56 W/m 14,8 C 22,6 C 24,1 km/h (4 Bft) 100 %
04.08.2017 19:30 23,1 C 23,1 C 23,3 C 59 % 1013,6 hPa 0,0 l/m 9,2 km/h (2 Bft) W 259 0 min 0,000 mm 39 W/m 14,6 C 22,3 C 20,9 km/h (4 Bft) 100 %
04.08.2017 19:40 22,8 C 22,8 C 23,1 C 58 % 1013,7 hPa 0,0 l/m 5,1 km/h (1 Bft) W-NW 287 0 min 0,000 mm 39 W/m 14,1 C 22,8 C 24,1 km/h (4 Bft) 100 %
04.08.2017 19:50 22,6 C 22,6 C 22,8 C 61 % 1013,6 hPa 0,0 l/m 2,1 km/h (1 Bft) W 270 0 min 0,000 mm 30 W/m 14,7 C 22,6 C 11,3 km/h (2 Bft) 100 %
04.08.2017 20:00 22,3 C 22,3 C 22,6 C 61 % 1013,7 hPa 0,0 l/m 1,7 km/h (1 Bft) W-NW 284 0 min 0,076 mm 25 W/m 14,4 C 22,3 C 16,1 km/h (3 Bft) 100 %
04.08.2017 20:10 21,9 C 21,9 C 22,3 C 62 % 1013,7 hPa 0,0 l/m 0,2 km/h (0 Bft) W-NW 284 0 min 0,000 mm 21 W/m 14,3 C 21,9 C 6,4 km/h (2 Bft) 100 %
04.08.2017 20:20 21,7 C 21,7 C 21,9 C 63 % 1013,7 hPa 0,0 l/m 0,3 km/h (0 Bft) SW 224 0 min 0,000 mm 18 W/m 14,3 C 21,7 C 8,0 km/h (2 Bft) 100 %
04.08.2017 20:30 21,4 C 21,4 C 21,7 C 64 % 1013,6 hPa 0,0 l/m 0,2 km/h (0 Bft) W-SW 243 0 min 0,000 mm 14 W/m 14,3 C 21,4 C 6,4 km/h (2 Bft) 100 %
04.08.2017 20:40 21,2 C 21,2 C 21,4 C 65 % 1013,7 hPa 0,0 l/m 0,0 km/h (0 Bft) W-SW 242 0 min 0,000 mm 9 W/m 14,4 C 21,2 C 1,6 km/h (1 Bft) 100 %
04.08.2017 20:50 20,9 C 20,9 C 21,2 C 66 % 1013,8 hPa 0,0 l/m 0,1 km/h (0 Bft) SW 222 0 min 0,000 mm 5 W/m 14,3 C 20,9 C 8,0 km/h (2 Bft) 100 %
04.08.2017 21:00 20,6 C 20,6 C 20,9 C 67 % 1013,9 hPa 0,0 l/m 0,0 km/h (0 Bft) SW 222 0 min 0,026 mm 0 W/m 14,3 C 20,6 C 0,0 km/h (0 Bft) 100 %
04.08.2017 21:10 20,3 C 20,3 C 20,6 C 69 % 1014,2 hPa 0,0 l/m 0,0 km/h (0 Bft) N 0 0 min 0,000 mm 0 W/m 14,4 C 20,3 C 0,0 km/h (0 Bft) 96 %
04.08.2017 21:20 19,8 C 19,8 C 20,2 C 71 % 1014,1 hPa 0,0 l/m 0,0 km/h (0 Bft) N 0 0 min 0,000 mm 0 W/m 14,4 C 19,8 C 0,0 km/h (0 Bft) 98 %
04.08.2017 21:30 19,4 C 19,4 C 19,8 C 73 % 1014,3 hPa 0,0 l/m 0,0 km/h (0 Bft) N 0 0 min 0,000 mm 0 W/m 14,4 C 19,4 C 0,0 km/h (0 Bft) 98 %
04.08.2017 21:40 19,2 C 19,2 C 19,4 C 73 % 1014,3 hPa 0,0 l/m 0,0 km/h (0 Bft) N 0 0 min 0,000 mm 0 W/m 14,2 C 19,2 C 0,0 km/h (0 Bft) 97 %
04.08.2017 21:50 19,2 C 19,2 C 19,2 C 72 % 1014,4 hPa 0,0 l/m 0,0 km/h (0 Bft) SW 225 0 min 0,000 mm 0 W/m 14,0 C 19,2 C 1,6 km/h (1 Bft) 98 %
04.08.2017 22:00 19,2 C 19,2 C 19,2 C 71 % 1014,4 hPa 0,0 l/m 0,0 km/h (0 Bft) N 0 0 min 0,000 mm 0 W/m 13,8 C 19,2 C 0,0 km/h (0 Bft) 97 %
04.08.2017 22:10 19,2 C 19,2 C 19,2 C 73 % 1014,5 hPa 0,0 l/m 0,0 km/h (0 Bft) N 0 0 min 0,000 mm 0 W/m 14,2 C 19,2 C 0,0 km/h (0 Bft) 97 %
04.08.2017 22:20 18,8 C 18,8 C 19,1 C 75 % 1014,7 hPa 0,0 l/m 0,0 km/h (0 Bft) N 0 0 min 0,000 mm 0 W/m 14,3 C 18,8 C 0,0 km/h (0 Bft) 97 %
04.08.2017 22:30 18,5 C 18,5 C 18,8 C 75 % 1014,6 hPa 0,0 l/m 0,0 km/h (0 Bft) N 0 0 min 0,000 mm 0 W/m 14,0 C 18,5 C 0,0 km/h (0 Bft) 98 %
04.08.2017 22:40 18,2 C 18,2 C 18,4 C 77 % 1014,7 hPa 0,0 l/m 0,0 km/h (0 Bft) N 0 0 min 0,000 mm 0 W/m 14,1 C 18,2 C 0,0 km/h (0 Bft) 98 %
04.08.2017 22:50 17,9 C 17,9 C 18,2 C 78 % 1014,7 hPa 0,0 l/m 0,0 km/h (0 Bft) N 0 0 min 0,000 mm 0 W/m 14,0 C 17,9 C 0,0 km/h (0 Bft) 97 %
04.08.2017 23:00 17,8 C 17,8 C 17,9 C 78 % 1014,8 hPa 0,0 l/m 0,0 km/h (0 Bft) SW 225 0 min 0,025 mm 0 W/m 13,9 C 17,8 C 1,6 km/h (1 Bft) 98 %
04.08.2017 23:10 17,7 C 17,7 C 17,8 C 78 % 1014,8 hPa 0,0 l/m 0,0 km/h (0 Bft) N 0 0 min 0,000 mm 0 W/m 13,8 C 17,7 C 0,0 km/h (0 Bft) 98 %
04.08.2017 23:20 17,6 C 17,6 C 17,7 C 78 % 1014,9 hPa 0,0 l/m 0,0 km/h (0 Bft) N 0 0 min 0,000 mm 0 W/m 13,7 C 17,6 C 0,0 km/h (0 Bft) 98 %
04.08.2017 23:30 17,6 C 17,6 C 17,6 C 78 % 1014,8 hPa 0,0 l/m 0,0 km/h (0 Bft) SW 225 0 min 0,000 mm 0 W/m 13,7 C 17,6 C 1,6 km/h (1 Bft) 97 %
04.08.2017 23:40 17,6 C 17,6 C 17,6 C 79 % 1014,9 hPa 0,0 l/m 0,0 km/h (0 Bft) N 0 0 min 0,000 mm 0 W/m 13,9 C 17,6 C 0,0 km/h (0 Bft) 97 %
04.08.2017 23:50 17,4 C 17,4 C 17,6 C 79 % 1014,8 hPa 0,0 l/m 0,0 km/h (0 Bft) N 0 0 min 0,000 mm 0 W/m 13,7 C 17,4 C 0,0 km/h (0 Bft) 98 %
_ Min-Zeit 23:50 23:50 23:30 16:30 05:10 - 00:00 - - - - - 23:20 23:50 00:40 04:10
Minimum _ 17,4 C 17,4 C 17,6 C 54 % 1011,7 hPa - 0,0 km/h (0 Bft) - - - - - 13,7 C 17,4 C 0,0 km/h (0 Bft) 89 %
_ Max-Zeit 16:20 16:40 16:20 06:30 23:20 00:00 13:10 - - 08:30 17:00 10:30 10:30 17:20 11:50 10:50
Maximum _ 24,7 C 24,7 C 24,7 C 86 % 1014,9 hPa 0,0 l/m 16,1 km/h
S (3 Bft)
- - 10 min 0,407 mm 898 W/m 17,8 C 24,6 C 33,8 km/h
S-SW (5 Bft)
100 %
Durchschnitt _ 21,2 C 21,1 C 21,3 C 73 % 1013,1 hPa #0,0 l/m 4,8 km/h (1 Bft) W-SW - #8:30 h #3,175 mm 279 W/m 16,0 C 20,8 C 13,9 km/h (3 Bft) 99 %
PRIVATE WETTERSTATION BILLIGHEIM-ALLFELD - www.neckar-odenwald-wetter.de - Holger Sonntag